sensor_id;sensor_type;location;lat;lon;timestamp;temperature;humidity
31451;DHT22;18070;52.474;13.304;2023-10-31T00:00:40;13.10;99.90
31451;DHT22;18070;52.474;13.304;2023-10-31T00:03:05;13.10;99.90
31451;DHT22;18070;52.474;13.304;2023-10-31T00:05:31;13.10;99.90
31451;DHT22;18070;52.474;13.304;2023-10-31T00:07:57;13.10;99.90
31451;DHT22;18070;52.474;13.304;2023-10-31T00:10:22;13.10;99.90
31451;DHT22;18070;52.474;13.304;2023-10-31T00:12:48;13.10;99.90
31451;DHT22;18070;52.474;13.304;2023-10-31T00:15:14;13.10;99.90
31451;DHT22;18070;52.474;13.304;2023-10-31T00:17:39;13.10;99.90
31451;DHT22;18070;52.474;13.304;2023-10-31T00:20:06;13.10;99.90
31451;DHT22;18070;52.474;13.304;2023-10-31T00:22:32;13.10;99.90
31451;DHT22;18070;52.474;13.304;2023-10-31T00:24:57;13.10;99.90
31451;DHT22;18070;52.474;13.304;2023-10-31T00:27:23;13.10;99.90
31451;DHT22;18070;52.474;13.304;2023-10-31T00:29:49;13.10;99.90
31451;DHT22;18070;52.474;13.304;2023-10-31T00:32:14;13.10;99.90
31451;DHT22;18070;52.474;13.304;2023-10-31T00:34:40;13.10;99.90
31451;DHT22;18070;52.474;13.304;2023-10-31T00:37:05;13.10;99.90
31451;DHT22;18070;52.474;13.304;2023-10-31T00:39:31;13.10;99.90
31451;DHT22;18070;52.474;13.304;2023-10-31T00:41:59;13.10;99.90
31451;DHT22;18070;52.474;13.304;2023-10-31T00:44:24;13.10;99.90
31451;DHT22;18070;52.474;13.304;2023-10-31T00:46:50;13.10;99.90
31451;DHT22;18070;52.474;13.304;2023-10-31T00:49:15;13.10;99.90
31451;DHT22;18070;52.474;13.304;2023-10-31T00:51:41;13.10;99.90
31451;DHT22;18070;52.474;13.304;2023-10-31T00:54:06;13.00;99.90
31451;DHT22;18070;52.474;13.304;2023-10-31T00:56:32;13.00;99.90
31451;DHT22;18070;52.474;13.304;2023-10-31T00:58:57;13.00;99.90
31451;DHT22;18070;52.474;13.304;2023-10-31T01:01:23;13.00;99.90
31451;DHT22;18070;52.474;13.304;2023-10-31T01:03:49;13.10;99.90
31451;DHT22;18070;52.474;13.304;2023-10-31T01:06:14;13.10;99.90
31451;DHT22;18070;52.474;13.304;2023-10-31T01:08:40;13.10;99.90
31451;DHT22;18070;52.474;13.304;2023-10-31T01:11:05;13.10;99.90
31451;DHT22;18070;52.474;13.304;2023-10-31T01:13:31;13.10;99.90
31451;DHT22;18070;52.474;13.304;2023-10-31T01:15:57;13.10;99.90
31451;DHT22;18070;52.474;13.304;2023-10-31T01:18:22;13.10;99.90
31451;DHT22;18070;52.474;13.304;2023-10-31T01:20:48;13.10;99.90
31451;DHT22;18070;52.474;13.304;2023-10-31T01:23:14;13.00;99.90
31451;DHT22;18070;52.474;13.304;2023-10-31T01:25:39;13.00;99.90
31451;DHT22;18070;52.474;13.304;2023-10-31T01:28:05;12.90;99.90
31451;DHT22;18070;52.474;13.304;2023-10-31T01:30:32;13.00;99.90
31451;DHT22;18070;52.474;13.304;2023-10-31T01:32:57;12.90;99.90
31451;DHT22;18070;52.474;13.304;2023-10-31T01:35:23;12.90;99.90
31451;DHT22;18070;52.474;13.304;2023-10-31T01:37:49;12.90;99.90
31451;DHT22;18070;52.474;13.304;2023-10-31T01:40:14;12.80;99.90
31451;DHT22;18070;52.474;13.304;2023-10-31T01:42:40;12.80;99.90
31451;DHT22;18070;52.474;13.304;2023-10-31T01:45:06;12.80;99.90
31451;DHT22;18070;52.474;13.304;2023-10-31T01:47:32;12.80;99.90
31451;DHT22;18070;52.474;13.304;2023-10-31T01:49:58;12.80;99.90
31451;DHT22;18070;52.474;13.304;2023-10-31T01:52:25;12.80;99.90
31451;DHT22;18070;52.474;13.304;2023-10-31T01:54:50;12.80;99.90
31451;DHT22;18070;52.474;13.304;2023-10-31T01:57:18;12.70;99.90
31451;DHT22;18070;52.474;13.304;2023-10-31T01:59:44;12.80;99.90
31451;DHT22;18070;52.474;13.304;2023-10-31T02:02:10;12.80;99.90
31451;DHT22;18070;52.474;13.304;2023-10-31T02:04:35;12.70;99.90
31451;DHT22;18070;52.474;13.304;2023-10-31T02:07:01;12.70;99.90
31451;DHT22;18070;52.474;13.304;2023-10-31T02:09:27;12.70;99.90
31451;DHT22;18070;52.474;13.304;2023-10-31T02:11:54;12.70;99.90
31451;DHT22;18070;52.474;13.304;2023-10-31T02:14:22;12.70;99.90
31451;DHT22;18070;52.474;13.304;2023-10-31T02:16:47;12.70;99.90
31451;DHT22;18070;52.474;13.304;2023-10-31T02:19:18;12.70;99.90
31451;DHT22;18070;52.474;13.304;2023-10-31T02:21:44;12.70;99.90
31451;DHT22;18070;52.474;13.304;2023-10-31T02:24:10;12.70;99.90
31451;DHT22;18070;52.474;13.304;2023-10-31T02:26:35;12.70;99.90
31451;DHT22;18070;52.474;13.304;2023-10-31T02:29:01;12.70;99.90
31451;DHT22;18070;52.474;13.304;2023-10-31T02:31:27;12.60;99.90
31451;DHT22;18070;52.474;13.304;2023-10-31T02:33:53;12.60;99.90
31451;DHT22;18070;52.474;13.304;2023-10-31T02:36:19;12.60;99.90
31451;DHT22;18070;52.474;13.304;2023-10-31T02:38:45;12.70;99.90
31451;DHT22;18070;52.474;13.304;2023-10-31T02:41:11;12.60;99.90
31451;DHT22;18070;52.474;13.304;2023-10-31T02:43:38;12.70;99.90
31451;DHT22;18070;52.474;13.304;2023-10-31T02:46:03;12.60;99.90
31451;DHT22;18070;52.474;13.304;2023-10-31T02:48:29;12.60;99.90
31451;DHT22;18070;52.474;13.304;2023-10-31T02:50:57;12.70;99.90
31451;DHT22;18070;52.474;13.304;2023-10-31T02:53:23;12.70;99.90
31451;DHT22;18070;52.474;13.304;2023-10-31T02:55:49;12.60;99.90
31451;DHT22;18070;52.474;13.304;2023-10-31T02:58:14;12.60;99.90
31451;DHT22;18070;52.474;13.304;2023-10-31T03:00:42;12.60;99.90
31451;DHT22;18070;52.474;13.304;2023-10-31T03:03:08;12.60;99.90
31451;DHT22;18070;52.474;13.304;2023-10-31T03:05:34;12.60;99.90
31451;DHT22;18070;52.474;13.304;2023-10-31T03:08:00;12.50;99.90
31451;DHT22;18070;52.474;13.304;2023-10-31T03:10:26;12.60;99.90
31451;DHT22;18070;52.474;13.304;2023-10-31T03:12:52;12.50;99.90
31451;DHT22;18070;52.474;13.304;2023-10-31T03:15:17;12.50;99.90
31451;DHT22;18070;52.474;13.304;2023-10-31T03:17:43;12.50;99.90
31451;DHT22;18070;52.474;13.304;2023-10-31T03:20:09;12.50;99.90
31451;DHT22;18070;52.474;13.304;2023-10-31T03:22:35;12.50;99.90
31451;DHT22;18070;52.474;13.304;2023-10-31T03:25:00;12.40;99.90
31451;DHT22;18070;52.474;13.304;2023-10-31T03:27:26;12.40;99.90
31451;DHT22;18070;52.474;13.304;2023-10-31T03:29:52;12.40;99.90
31451;DHT22;18070;52.474;13.304;2023-10-31T03:32:17;12.40;99.90
31451;DHT22;18070;52.474;13.304;2023-10-31T03:34:43;12.50;99.90
31451;DHT22;18070;52.474;13.304;2023-10-31T03:37:09;12.40;99.90
31451;DHT22;18070;52.474;13.304;2023-10-31T03:39:34;12.40;99.90
31451;DHT22;18070;52.474;13.304;2023-10-31T03:42:00;12.40;99.90
31451;DHT22;18070;52.474;13.304;2023-10-31T03:44:25;12.40;99.90
31451;DHT22;18070;52.474;13.304;2023-10-31T03:46:51;12.50;99.90
31451;DHT22;18070;52.474;13.304;2023-10-31T03:49:17;12.40;99.90
31451;DHT22;18070;52.474;13.304;2023-10-31T03:51:42;12.50;99.90
31451;DHT22;18070;52.474;13.304;2023-10-31T03:54:08;12.40;99.90
31451;DHT22;18070;52.474;13.304;2023-10-31T03:56:41;12.40;99.90
31451;DHT22;18070;52.474;13.304;2023-10-31T03:59:07;12.50;99.90
31451;DHT22;18070;52.474;13.304;2023-10-31T04:01:33;12.40;99.90
31451;DHT22;18070;52.474;13.304;2023-10-31T04:03:58;12.50;99.90
31451;DHT22;18070;52.474;13.304;2023-10-31T04:06:24;12.50;99.90
31451;DHT22;18070;52.474;13.304;2023-10-31T04:08:49;12.40;99.90
31451;DHT22;18070;52.474;13.304;2023-10-31T04:11:15;12.50;99.90
31451;DHT22;18070;52.474;13.304;2023-10-31T04:13:40;12.40;99.90
31451;DHT22;18070;52.474;13.304;2023-10-31T04:16:06;12.40;99.90
31451;DHT22;18070;52.474;13.304;2023-10-31T04:18:32;12.40;99.90
31451;DHT22;18070;52.474;13.304;2023-10-31T04:20:58;12.40;99.90
31451;DHT22;18070;52.474;13.304;2023-10-31T04:23:24;12.50;99.90
31451;DHT22;18070;52.474;13.304;2023-10-31T04:25:50;12.50;99.90
31451;DHT22;18070;52.474;13.304;2023-10-31T04:28:18;12.50;99.90
31451;DHT22;18070;52.474;13.304;2023-10-31T04:30:43;12.50;99.90
31451;DHT22;18070;52.474;13.304;2023-10-31T04:33:09;12.50;99.90
31451;DHT22;18070;52.474;13.304;2023-10-31T04:35:34;12.50;99.90
31451;DHT22;18070;52.474;13.304;2023-10-31T04:38:00;12.50;99.90
31451;DHT22;18070;52.474;13.304;2023-10-31T04:40:25;12.50;99.90
31451;DHT22;18070;52.474;13.304;2023-10-31T04:42:51;12.50;99.90
31451;DHT22;18070;52.474;13.304;2023-10-31T04:45:17;12.50;99.90
31451;DHT22;18070;52.474;13.304;2023-10-31T04:47:42;12.50;99.90
31451;DHT22;18070;52.474;13.304;2023-10-31T04:50:08;12.50;99.90
31451;DHT22;18070;52.474;13.304;2023-10-31T04:52:34;12.60;99.90
31451;DHT22;18070;52.474;13.304;2023-10-31T04:54:59;12.60;99.90
31451;DHT22;18070;52.474;13.304;2023-10-31T04:57:25;12.60;99.90
31451;DHT22;18070;52.474;13.304;2023-10-31T04:59:51;12.60;99.90
31451;DHT22;18070;52.474;13.304;2023-10-31T05:02:21;12.60;99.90
31451;DHT22;18070;52.474;13.304;2023-10-31T05:04:46;12.60;99.90
31451;DHT22;18070;52.474;13.304;2023-10-31T05:07:18;12.50;99.90
31451;DHT22;18070;52.474;13.304;2023-10-31T05:09:44;12.60;99.90
31451;DHT22;18070;52.474;13.304;2023-10-31T05:12:09;12.60;99.90
31451;DHT22;18070;52.474;13.304;2023-10-31T05:14:35;12.60;99.90
31451;DHT22;18070;52.474;13.304;2023-10-31T05:17:01;12.60;99.90
31451;DHT22;18070;52.474;13.304;2023-10-31T05:19:26;12.70;99.90
31451;DHT22;18070;52.474;13.304;2023-10-31T05:21:52;12.70;99.90
31451;DHT22;18070;52.474;13.304;2023-10-31T05:24:18;12.70;99.90
31451;DHT22;18070;52.474;13.304;2023-10-31T05:26:43;12.70;99.90
31451;DHT22;18070;52.474;13.304;2023-10-31T05:29:09;12.70;99.90
31451;DHT22;18070;52.474;13.304;2023-10-31T05:31:35;12.70;99.90
31451;DHT22;18070;52.474;13.304;2023-10-31T05:34:01;12.70;99.90
31451;DHT22;18070;52.474;13.304;2023-10-31T05:36:26;12.70;99.90
31451;DHT22;18070;52.474;13.304;2023-10-31T05:38:53;12.80;99.90
31451;DHT22;18070;52.474;13.304;2023-10-31T05:41:19;12.70;99.90
31451;DHT22;18070;52.474;13.304;2023-10-31T05:43:45;12.70;99.90
31451;DHT22;18070;52.474;13.304;2023-10-31T05:46:11;12.70;99.90
31451;DHT22;18070;52.474;13.304;2023-10-31T05:48:43;12.70;99.90
31451;DHT22;18070;52.474;13.304;2023-10-31T05:51:17;12.70;99.90
31451;DHT22;18070;52.474;13.304;2023-10-31T05:53:45;12.70;99.90
31451;DHT22;18070;52.474;13.304;2023-10-31T05:56:13;12.70;99.90
31451;DHT22;18070;52.474;13.304;2023-10-31T05:58:40;12.80;99.90
31451;DHT22;18070;52.474;13.304;2023-10-31T06:01:06;12.80;99.90
31451;DHT22;18070;52.474;13.304;2023-10-31T06:03:32;12.80;99.90
31451;DHT22;18070;52.474;13.304;2023-10-31T06:05:57;12.80;99.90
31451;DHT22;18070;52.474;13.304;2023-10-31T06:08:23;12.80;99.90
31451;DHT22;18070;52.474;13.304;2023-10-31T06:10:50;12.80;99.90
31451;DHT22;18070;52.474;13.304;2023-10-31T06:13:16;12.80;99.90
31451;DHT22;18070;52.474;13.304;2023-10-31T06:15:42;12.80;99.90
31451;DHT22;18070;52.474;13.304;2023-10-31T06:18:08;12.80;99.90
31451;DHT22;18070;52.474;13.304;2023-10-31T06:20:34;12.90;99.90
31451;DHT22;18070;52.474;13.304;2023-10-31T06:23:00;12.90;99.90
31451;DHT22;18070;52.474;13.304;2023-10-31T06:25:29;12.90;99.90
31451;DHT22;18070;52.474;13.304;2023-10-31T06:27:55;12.80;99.90
31451;DHT22;18070;52.474;13.304;2023-10-31T06:30:20;12.90;99.90
31451;DHT22;18070;52.474;13.304;2023-10-31T06:32:46;12.90;99.90
31451;DHT22;18070;52.474;13.304;2023-10-31T06:35:12;12.90;99.90
31451;DHT22;18070;52.474;13.304;2023-10-31T06:37:37;12.90;99.90
31451;DHT22;18070;52.474;13.304;2023-10-31T06:40:04;12.90;99.90
31451;DHT22;18070;52.474;13.304;2023-10-31T06:42:30;12.90;99.90
31451;DHT22;18070;52.474;13.304;2023-10-31T06:44:55;13.00;99.90
31451;DHT22;18070;52.474;13.304;2023-10-31T06:47:21;13.10;99.90
31451;DHT22;18070;52.474;13.304;2023-10-31T06:49:47;13.00;99.90
31451;DHT22;18070;52.474;13.304;2023-10-31T06:52:12;13.00;99.90
31451;DHT22;18070;52.474;13.304;2023-10-31T06:54:38;13.00;99.90
31451;DHT22;18070;52.474;13.304;2023-10-31T06:57:03;13.10;99.90
31451;DHT22;18070;52.474;13.304;2023-10-31T06:59:29;13.10;99.90
31451;DHT22;18070;52.474;13.304;2023-10-31T07:01:55;13.10;99.90
31451;DHT22;18070;52.474;13.304;2023-10-31T07:04:21;13.10;99.90
31451;DHT22;18070;52.474;13.304;2023-10-31T07:06:46;13.10;99.90
31451;DHT22;18070;52.474;13.304;2023-10-31T07:09:12;13.10;99.90
31451;DHT22;18070;52.474;13.304;2023-10-31T07:11:37;13.20;99.90
31451;DHT22;18070;52.474;13.304;2023-10-31T07:14:03;13.20;99.90
31451;DHT22;18070;52.474;13.304;2023-10-31T07:16:31;13.10;99.90
31451;DHT22;18070;52.474;13.304;2023-10-31T07:18:57;13.10;99.90
31451;DHT22;18070;52.474;13.304;2023-10-31T07:21:22;13.10;99.90
31451;DHT22;18070;52.474;13.304;2023-10-31T07:23:48;13.10;99.90
31451;DHT22;18070;52.474;13.304;2023-10-31T07:26:13;13.10;99.90
31451;DHT22;18070;52.474;13.304;2023-10-31T07:28:39;13.10;99.90
31451;DHT22;18070;52.474;13.304;2023-10-31T07:31:05;13.10;99.90
31451;DHT22;18070;52.474;13.304;2023-10-31T07:33:30;13.00;99.90
31451;DHT22;18070;52.474;13.304;2023-10-31T07:35:56;13.00;99.90
31451;DHT22;18070;52.474;13.304;2023-10-31T07:38:21;13.00;99.90
31451;DHT22;18070;52.474;13.304;2023-10-31T07:40:47;13.00;99.90
31451;DHT22;18070;52.474;13.304;2023-10-31T07:43:14;12.90;99.90
31451;DHT22;18070;52.474;13.304;2023-10-31T07:45:39;13.00;99.90
31451;DHT22;18070;52.474;13.304;2023-10-31T07:48:05;13.10;99.90
31451;DHT22;18070;52.474;13.304;2023-10-31T07:50:31;13.20;99.90
31451;DHT22;18070;52.474;13.304;2023-10-31T07:52:56;13.20;99.90
31451;DHT22;18070;52.474;13.304;2023-10-31T07:55:22;13.10;99.90
31451;DHT22;18070;52.474;13.304;2023-10-31T07:57:48;13.10;99.90
31451;DHT22;18070;52.474;13.304;2023-10-31T08:00:13;13.00;99.90
31451;DHT22;18070;52.474;13.304;2023-10-31T08:02:39;13.00;99.90
31451;DHT22;18070;52.474;13.304;2023-10-31T08:05:05;13.00;99.90
31451;DHT22;18070;52.474;13.304;2023-10-31T08:07:31;12.90;99.90
31451;DHT22;18070;52.474;13.304;2023-10-31T08:09:56;12.90;99.90
31451;DHT22;18070;52.474;13.304;2023-10-31T08:12:22;12.90;99.90
31451;DHT22;18070;52.474;13.304;2023-10-31T08:14:48;13.00;99.90
31451;DHT22;18070;52.474;13.304;2023-10-31T08:17:14;13.00;99.90
31451;DHT22;18070;52.474;13.304;2023-10-31T08:19:39;13.00;99.90
31451;DHT22;18070;52.474;13.304;2023-10-31T08:22:05;13.00;99.90
31451;DHT22;18070;52.474;13.304;2023-10-31T08:24:30;13.00;99.90
31451;DHT22;18070;52.474;13.304;2023-10-31T08:26:57;13.10;99.90
31451;DHT22;18070;52.474;13.304;2023-10-31T08:29:24;13.10;99.90
31451;DHT22;18070;52.474;13.304;2023-10-31T08:31:49;13.20;99.90
31451;DHT22;18070;52.474;13.304;2023-10-31T08:34:15;13.30;99.90
31451;DHT22;18070;52.474;13.304;2023-10-31T08:36:40;13.40;99.90
31451;DHT22;18070;52.474;13.304;2023-10-31T08:39:06;13.60;99.90
31451;DHT22;18070;52.474;13.304;2023-10-31T08:41:31;13.70;99.90
31451;DHT22;18070;52.474;13.304;2023-10-31T08:43:57;13.80;99.90
31451;DHT22;18070;52.474;13.304;2023-10-31T08:46:23;13.80;99.90
31451;DHT22;18070;52.474;13.304;2023-10-31T08:48:49;13.70;99.90
31451;DHT22;18070;52.474;13.304;2023-10-31T08:51:15;13.60;99.90
31451;DHT22;18070;52.474;13.304;2023-10-31T08:53:40;13.50;99.90
31451;DHT22;18070;52.474;13.304;2023-10-31T08:56:06;13.50;99.90
31451;DHT22;18070;52.474;13.304;2023-10-31T08:58:32;13.50;99.90
31451;DHT22;18070;52.474;13.304;2023-10-31T09:00:58;13.60;99.90
31451;DHT22;18070;52.474;13.304;2023-10-31T09:03:24;13.50;99.90
31451;DHT22;18070;52.474;13.304;2023-10-31T09:05:49;13.50;99.90
31451;DHT22;18070;52.474;13.304;2023-10-31T09:08:15;13.60;99.90
31451;DHT22;18070;52.474;13.304;2023-10-31T09:10:41;13.70;99.90
31451;DHT22;18070;52.474;13.304;2023-10-31T09:13:08;13.60;99.90
31451;DHT22;18070;52.474;13.304;2023-10-31T09:15:35;13.70;99.90
31451;DHT22;18070;52.474;13.304;2023-10-31T09:18:01;13.90;99.90
31451;DHT22;18070;52.474;13.304;2023-10-31T09:20:27;14.40;99.90
31451;DHT22;18070;52.474;13.304;2023-10-31T09:22:53;15.00;99.90
31451;DHT22;18070;52.474;13.304;2023-10-31T09:25:19;15.40;99.90
31451;DHT22;18070;52.474;13.304;2023-10-31T09:27:44;15.10;99.90
31451;DHT22;18070;52.474;13.304;2023-10-31T09:30:10;15.10;99.90
31451;DHT22;18070;52.474;13.304;2023-10-31T09:32:36;14.80;99.90
31451;DHT22;18070;52.474;13.304;2023-10-31T09:35:01;14.40;99.90
31451;DHT22;18070;52.474;13.304;2023-10-31T09:37:27;14.20;99.90
31451;DHT22;18070;52.474;13.304;2023-10-31T09:39:53;14.10;99.90
31451;DHT22;18070;52.474;13.304;2023-10-31T09:42:18;13.90;99.90
31451;DHT22;18070;52.474;13.304;2023-10-31T09:44:44;14.00;99.90
31451;DHT22;18070;52.474;13.304;2023-10-31T09:47:10;14.00;99.90
31451;DHT22;18070;52.474;13.304;2023-10-31T09:49:36;14.50;99.90
31451;DHT22;18070;52.474;13.304;2023-10-31T09:52:01;14.60;99.90
31451;DHT22;18070;52.474;13.304;2023-10-31T09:54:29;14.90;99.90
31451;DHT22;18070;52.474;13.304;2023-10-31T09:56:55;14.90;99.90
31451;DHT22;18070;52.474;13.304;2023-10-31T09:59:21;14.80;99.90
31451;DHT22;18070;52.474;13.304;2023-10-31T10:01:46;14.70;99.90
31451;DHT22;18070;52.474;13.304;2023-10-31T10:04:12;14.60;99.90
31451;DHT22;18070;52.474;13.304;2023-10-31T10:07:00;14.50;99.90
31451;DHT22;18070;52.474;13.304;2023-10-31T10:09:27;14.30;99.90
31451;DHT22;18070;52.474;13.304;2023-10-31T10:11:53;14.20;99.90
31451;DHT22;18070;52.474;13.304;2023-10-31T10:14:19;14.10;99.90
31451;DHT22;18070;52.474;13.304;2023-10-31T10:16:44;14.10;99.90
31451;DHT22;18070;52.474;13.304;2023-10-31T10:19:28;14.10;99.90
31451;DHT22;18070;52.474;13.304;2023-10-31T10:21:56;14.00;99.90
31451;DHT22;18070;52.474;13.304;2023-10-31T10:24:23;14.00;99.90
31451;DHT22;18070;52.474;13.304;2023-10-31T10:26:50;13.90;99.90
31451;DHT22;18070;52.474;13.304;2023-10-31T10:29:16;13.80;99.90
31451;DHT22;18070;52.474;13.304;2023-10-31T10:31:43;13.90;99.90
31451;DHT22;18070;52.474;13.304;2023-10-31T10:34:09;14.00;99.90
31451;DHT22;18070;52.474;13.304;2023-10-31T10:36:35;14.20;99.90
31451;DHT22;18070;52.474;13.304;2023-10-31T10:39:00;14.30;99.90
31451;DHT22;18070;52.474;13.304;2023-10-31T10:41:27;14.30;99.90
31451;DHT22;18070;52.474;13.304;2023-10-31T10:44:04;14.30;99.90
31451;DHT22;18070;52.474;13.304;2023-10-31T10:46:35;14.30;99.90
31451;DHT22;18070;52.474;13.304;2023-10-31T10:49:04;14.20;99.90
31451;DHT22;18070;52.474;13.304;2023-10-31T10:51:40;14.20;99.90
31451;DHT22;18070;52.474;13.304;2023-10-31T10:54:11;14.30;99.90
31451;DHT22;18070;52.474;13.304;2023-10-31T10:56:45;14.20;99.90
31451;DHT22;18070;52.474;13.304;2023-10-31T10:59:18;14.30;99.90
31451;DHT22;18070;52.474;13.304;2023-10-31T11:01:46;14.40;99.90
31451;DHT22;18070;52.474;13.304;2023-10-31T11:04:14;14.60;99.90
31451;DHT22;18070;52.474;13.304;2023-10-31T11:06:41;14.60;99.90
31451;DHT22;18070;52.474;13.304;2023-10-31T11:09:09;14.50;99.90
31451;DHT22;18070;52.474;13.304;2023-10-31T11:11:37;14.40;99.90
31451;DHT22;18070;52.474;13.304;2023-10-31T11:14:03;14.30;99.90
31451;DHT22;18070;52.474;13.304;2023-10-31T11:17:06;14.20;99.90
31451;DHT22;18070;52.474;13.304;2023-10-31T11:19:26;14.30;99.90
31451;DHT22;18070;52.474;13.304;2023-10-31T11:24:23;14.40;99.90
31451;DHT22;18070;52.474;13.304;2023-10-31T11:26:52;14.40;99.90
31451;DHT22;18070;52.474;13.304;2023-10-31T11:29:18;14.40;99.90
31451;DHT22;18070;52.474;13.304;2023-10-31T11:31:43;14.40;99.90
31451;DHT22;18070;52.474;13.304;2023-10-31T11:34:09;14.30;99.90
31451;DHT22;18070;52.474;13.304;2023-10-31T11:36:38;14.30;99.90
31451;DHT22;18070;52.474;13.304;2023-10-31T11:39:11;14.30;99.90
31451;DHT22;18070;52.474;13.304;2023-10-31T11:41:38;14.10;99.90
31451;DHT22;18070;52.474;13.304;2023-10-31T11:44:04;14.10;99.90
31451;DHT22;18070;52.474;13.304;2023-10-31T11:46:30;14.20;99.90
31451;DHT22;18070;52.474;13.304;2023-10-31T11:48:56;14.20;99.90
31451;DHT22;18070;52.474;13.304;2023-10-31T11:51:22;14.10;99.90
31451;DHT22;18070;52.474;13.304;2023-10-31T11:53:48;14.30;99.90
31451;DHT22;18070;52.474;13.304;2023-10-31T11:56:18;14.40;99.90
31451;DHT22;18070;52.474;13.304;2023-10-31T11:58:43;14.40;99.90
31451;DHT22;18070;52.474;13.304;2023-10-31T12:01:10;14.40;99.90
31451;DHT22;18070;52.474;13.304;2023-10-31T12:03:43;14.40;99.90
31451;DHT22;18070;52.474;13.304;2023-10-31T12:06:13;14.30;99.90
31451;DHT22;18070;52.474;13.304;2023-10-31T12:08:42;14.20;99.90
31451;DHT22;18070;52.474;13.304;2023-10-31T12:11:15;14.20;99.90
31451;DHT22;18070;52.474;13.304;2023-10-31T12:13:52;14.20;99.90
31451;DHT22;18070;52.474;13.304;2023-10-31T12:16:19;14.20;99.90
31451;DHT22;18070;52.474;13.304;2023-10-31T12:18:44;14.20;99.90
31451;DHT22;18070;52.474;13.304;2023-10-31T12:21:10;14.10;99.90
31451;DHT22;18070;52.474;13.304;2023-10-31T12:23:39;14.00;99.90
31451;DHT22;18070;52.474;13.304;2023-10-31T12:26:05;14.00;99.90
31451;DHT22;18070;52.474;13.304;2023-10-31T12:28:31;13.90;99.90
31451;DHT22;18070;52.474;13.304;2023-10-31T12:30:56;14.00;99.90
31451;DHT22;18070;52.474;13.304;2023-10-31T12:33:26;14.00;99.90
31451;DHT22;18070;52.474;13.304;2023-10-31T12:35:57;14.00;99.90
31451;DHT22;18070;52.474;13.304;2023-10-31T12:38:23;14.00;99.90
31451;DHT22;18070;52.474;13.304;2023-10-31T12:40:50;14.00;99.90
31451;DHT22;18070;52.474;13.304;2023-10-31T12:43:16;14.00;99.90
31451;DHT22;18070;52.474;13.304;2023-10-31T12:45:42;14.00;99.90
31451;DHT22;18070;52.474;13.304;2023-10-31T12:48:10;14.00;99.90
31451;DHT22;18070;52.474;13.304;2023-10-31T12:50:38;13.90;99.90
31451;DHT22;18070;52.474;13.304;2023-10-31T12:53:05;13.90;99.90
31451;DHT22;18070;52.474;13.304;2023-10-31T12:55:38;13.90;99.90
31451;DHT22;18070;52.474;13.304;2023-10-31T12:58:05;13.90;99.90
31451;DHT22;18070;52.474;13.304;2023-10-31T13:00:34;13.90;99.90
31451;DHT22;18070;52.474;13.304;2023-10-31T13:03:08;13.90;99.90
31451;DHT22;18070;52.474;13.304;2023-10-31T13:05:34;13.90;99.90
31451;DHT22;18070;52.474;13.304;2023-10-31T13:08:00;14.00;99.90
31451;DHT22;18070;52.474;13.304;2023-10-31T13:10:28;14.00;99.90
31451;DHT22;18070;52.474;13.304;2023-10-31T13:12:54;13.90;99.90
31451;DHT22;18070;52.474;13.304;2023-10-31T13:15:22;14.00;99.90
31451;DHT22;18070;52.474;13.304;2023-10-31T13:17:48;14.00;99.90
31451;DHT22;18070;52.474;13.304;2023-10-31T13:20:16;14.00;99.90
31451;DHT22;18070;52.474;13.304;2023-10-31T13:22:43;14.00;99.90
31451;DHT22;18070;52.474;13.304;2023-10-31T13:25:10;14.00;99.90
31451;DHT22;18070;52.474;13.304;2023-10-31T13:27:37;14.00;99.90
31451;DHT22;18070;52.474;13.304;2023-10-31T13:30:04;13.90;99.90
31451;DHT22;18070;52.474;13.304;2023-10-31T13:32:30;13.90;99.90
31451;DHT22;18070;52.474;13.304;2023-10-31T13:34:56;13.80;99.90
31451;DHT22;18070;52.474;13.304;2023-10-31T13:37:21;13.70;99.90
31451;DHT22;18070;52.474;13.304;2023-10-31T13:39:47;13.70;99.90
31451;DHT22;18070;52.474;13.304;2023-10-31T13:42:14;13.70;99.90
31451;DHT22;18070;52.474;13.304;2023-10-31T13:44:43;13.80;99.90
31451;DHT22;18070;52.474;13.304;2023-10-31T13:47:09;13.70;99.90
31451;DHT22;18070;52.474;13.304;2023-10-31T13:49:35;13.60;99.90
31451;DHT22;18070;52.474;13.304;2023-10-31T13:52:00;13.50;99.90
31451;DHT22;18070;52.474;13.304;2023-10-31T13:54:26;13.40;99.90
31451;DHT22;18070;52.474;13.304;2023-10-31T13:56:52;13.30;99.90
31451;DHT22;18070;52.474;13.304;2023-10-31T13:59:18;13.30;99.90
31451;DHT22;18070;52.474;13.304;2023-10-31T14:01:44;13.30;99.90
31451;DHT22;18070;52.474;13.304;2023-10-31T14:04:13;13.20;99.90
31451;DHT22;18070;52.474;13.304;2023-10-31T14:06:39;13.20;99.90
31451;DHT22;18070;52.474;13.304;2023-10-31T14:09:05;13.20;99.90
31451;DHT22;18070;52.474;13.304;2023-10-31T14:11:33;13.20;99.90
31451;DHT22;18070;52.474;13.304;2023-10-31T14:13:59;13.20;99.90
31451;DHT22;18070;52.474;13.304;2023-10-31T14:16:35;13.10;99.90
31451;DHT22;18070;52.474;13.304;2023-10-31T14:19:00;13.10;99.90
31451;DHT22;18070;52.474;13.304;2023-10-31T14:21:28;13.10;99.90
31451;DHT22;18070;52.474;13.304;2023-10-31T14:23:53;13.10;99.90
31451;DHT22;18070;52.474;13.304;2023-10-31T14:26:20;13.10;99.90
31451;DHT22;18070;52.474;13.304;2023-10-31T14:28:46;13.10;99.90
31451;DHT22;18070;52.474;13.304;2023-10-31T14:31:13;13.10;99.90
31451;DHT22;18070;52.474;13.304;2023-10-31T14:33:38;13.10;99.90
31451;DHT22;18070;52.474;13.304;2023-10-31T14:36:04;13.00;99.90
31451;DHT22;18070;52.474;13.304;2023-10-31T14:38:30;12.90;99.90
31451;DHT22;18070;52.474;13.304;2023-10-31T14:40:55;12.90;99.90
31451;DHT22;18070;52.474;13.304;2023-10-31T14:43:21;12.90;99.90
31451;DHT22;18070;52.474;13.304;2023-10-31T14:45:46;12.90;99.90
31451;DHT22;18070;52.474;13.304;2023-10-31T14:48:12;13.00;99.90
31451;DHT22;18070;52.474;13.304;2023-10-31T14:50:38;12.90;99.90
31451;DHT22;18070;52.474;13.304;2023-10-31T14:53:05;12.90;99.90
31451;DHT22;18070;52.474;13.304;2023-10-31T14:55:30;12.90;99.90
31451;DHT22;18070;52.474;13.304;2023-10-31T14:57:56;13.10;99.90
31451;DHT22;18070;52.474;13.304;2023-10-31T15:00:21;13.10;99.90
31451;DHT22;18070;52.474;13.304;2023-10-31T15:02:47;13.00;99.90
31451;DHT22;18070;52.474;13.304;2023-10-31T15:05:13;12.90;99.90
31451;DHT22;18070;52.474;13.304;2023-10-31T15:07:38;12.90;99.90
31451;DHT22;18070;52.474;13.304;2023-10-31T15:10:06;12.90;99.90
31451;DHT22;18070;52.474;13.304;2023-10-31T15:12:32;12.80;99.90